createdAt,value
2019-02-19T00:08:47.892Z,12.9
2019-02-19T00:18:48.013Z,12.5
2019-02-19T00:28:47.220Z,12.5
2019-02-19T00:38:46.427Z,13
2019-02-19T00:48:45.683Z,13
2019-02-19T00:58:44.835Z,13.1
2019-02-19T01:08:44.043Z,13.1
2019-02-19T01:18:43.245Z,12.9
2019-02-19T01:28:42.452Z,12.7
2019-02-19T01:38:41.653Z,13
2019-02-19T01:48:40.861Z,12.5
2019-02-19T01:58:40.116Z,12.8
2019-02-19T02:08:39.268Z,12.8
2019-02-19T02:18:38.521Z,12.5
2019-02-19T02:28:37.676Z,12.5
2019-02-19T02:38:36.881Z,12.9
2019-02-19T02:48:36.085Z,12.6
2019-02-19T02:58:35.298Z,12.3
2019-02-19T03:08:34.493Z,12.9
2019-02-19T03:18:33.696Z,13
2019-02-19T03:28:32.903Z,13.1
2019-02-19T03:38:32.126Z,12.5
2019-02-19T03:48:31.311Z,12.8
2019-02-19T03:58:30.513Z,12.5
2019-02-19T04:08:29.716Z,13.2
2019-02-19T04:18:28.930Z,12.5
2019-02-19T04:28:28.173Z,13.2
2019-02-19T04:38:27.324Z,12.7
2019-02-19T04:46:06.258Z,12.6
2019-02-19T04:56:05.463Z,12.7
2019-02-19T05:06:04.670Z,12.9
2019-02-19T05:16:03.871Z,12.4
2019-02-19T05:26:03.080Z,13.1
2019-02-19T05:36:02.288Z,12.7
2019-02-19T05:46:01.510Z,12.5
2019-02-19T05:56:00.801Z,12.9
2019-02-19T06:06:00.090Z,14.4
2019-02-19T06:15:59.383Z,14.4
2019-02-19T06:25:58.694Z,13.8
2019-02-19T06:35:57.963Z,13.8
2019-02-19T06:45:57.208Z,14
2019-02-19T06:55:56.414Z,14.6
2019-02-19T07:05:55.624Z,14.4
2019-02-19T07:15:54.828Z,14.3
2019-02-19T07:25:54.029Z,13.8
2019-02-19T07:35:53.233Z,13.8
2019-02-19T07:45:52.439Z,14.4
2019-02-19T07:55:51.643Z,13.8
2019-02-19T08:05:50.850Z,14.5
2019-02-19T08:15:50.055Z,14.1
2019-02-19T08:25:49.264Z,14.3
2019-02-19T08:35:47.297Z,14.2
2019-02-19T08:45:46.510Z,14.4
2019-02-19T08:55:45.709Z,14.5
2019-02-19T09:05:44.915Z,14.1
2019-02-19T09:15:44.119Z,13.8
2019-02-19T09:25:43.375Z,14.1
2019-02-19T09:35:42.530Z,14.1
2019-02-19T09:45:41.820Z,14.6
2019-02-19T09:55:41.108Z,14.4
2019-02-19T10:05:40.396Z,13.9
2019-02-19T10:15:39.686Z,14.1
2019-02-19T10:25:38.978Z,14.4
2019-02-19T10:35:38.225Z,14.6
2019-02-19T10:45:37.431Z,14.5
2019-02-19T10:55:36.645Z,14.4
2019-02-19T11:05:35.846Z,14.7
2019-02-19T11:15:35.055Z,14.4
2019-02-19T11:25:34.269Z,14.4
2019-02-19T11:35:33.474Z,14.3
2019-02-19T11:45:32.684Z,14.4
2019-02-19T11:55:31.892Z,14.6
2019-02-19T12:05:31.101Z,14
2019-02-19T12:15:35.079Z,14.7
2019-02-19T12:25:29.518Z,14.2
2019-02-19T12:35:28.719Z,13.6
2019-02-19T12:45:27.925Z,13.4
2019-02-19T12:55:27.131Z,13
2019-02-19T13:05:26.337Z,13.4
2019-02-19T13:15:25.539Z,12.7
2019-02-19T13:25:24.741Z,12.6
2019-02-19T13:35:23.947Z,13.3
2019-02-19T13:45:23.157Z,12.9
2019-02-19T13:55:22.355Z,13.1
2019-02-19T14:05:21.558Z,13
2019-02-19T14:15:20.762Z,13.1
2019-02-19T14:25:19.967Z,13.1
2019-02-19T14:35:19.170Z,12.4
2019-02-19T14:45:18.373Z,13.3
2019-02-19T14:55:17.577Z,12.7
2019-02-19T15:05:16.846Z,12.9
2019-02-19T15:15:15.985Z,12.5
2019-02-19T15:25:15.192Z,12.7
2019-02-19T15:35:14.393Z,12.4
2019-02-19T15:45:13.596Z,13.1
2019-02-19T15:55:12.799Z,12.8
2019-02-19T16:05:12.009Z,12.6
2019-02-19T16:15:11.207Z,12.8
2019-02-19T16:25:10.418Z,12.7
2019-02-19T16:35:09.620Z,12.7
2019-02-19T16:45:08.831Z,13
2019-02-19T16:55:08.042Z,13.1
2019-02-19T17:05:07.252Z,12.7
2019-02-19T17:15:06.460Z,13
2019-02-19T17:25:05.682Z,12.8
2019-02-19T17:35:04.880Z,12.6
2019-02-19T17:45:04.140Z,13
2019-02-19T17:55:03.291Z,12.7
2019-02-19T18:05:02.552Z,12.5
2019-02-19T18:15:01.711Z,12.5
2019-02-19T18:25:00.931Z,12.9
2019-02-19T18:35:00.247Z,12.5
2019-02-19T18:44:59.340Z,12.5
2019-02-19T18:54:58.550Z,13.2
2019-02-19T19:04:57.806Z,12.6
2019-02-19T19:14:56.973Z,13.1
2019-02-19T19:24:56.178Z,12.6
2019-02-19T19:34:55.390Z,12.5
2019-02-19T19:44:54.597Z,12.3
2019-02-19T19:54:53.827Z,13.2
2019-02-19T20:04:53.072Z,13
2019-02-19T20:14:52.260Z,13
2019-02-19T20:24:51.458Z,13.1
2019-02-19T20:31:00.366Z,12.7
2019-02-19T20:40:59.602Z,12.9
2019-02-19T20:50:58.784Z,12.5
2019-02-19T21:00:58.043Z,12.4
2019-02-19T21:05:54.932Z,12.6
2019-02-19T21:15:54.138Z,12.8
2019-02-19T21:25:53.397Z,12.9
2019-02-19T21:35:52.839Z,12.5
2019-02-19T21:45:51.765Z,12.4
2019-02-19T21:55:50.974Z,13
2019-02-19T22:05:50.245Z,12.8
2019-02-19T22:15:49.536Z,12.5
2019-02-19T22:25:48.773Z,13.1
2019-02-19T22:35:48.062Z,13.1
2019-02-19T22:45:47.353Z,12.4
2019-02-19T22:55:46.640Z,12.3
2019-02-19T23:05:45.887Z,13
2019-02-19T23:15:45.093Z,13.1
2019-02-19T23:25:44.350Z,12.3
2019-02-19T23:35:43.504Z,12.7
2019-02-19T23:45:42.708Z,12.5
2019-02-19T23:55:41.913Z,12.6
